24 days ago
罗盘
风向 的 风向 000° 科托卡国际机场 3/21
风: 0 千吨, 0 beaufort
0 500 1.500 3.000 5.000 8.000 10.000
FEW 1.100 ft
METAR DGTK 012100Z 00000KT 9999 FEW011 29/26 Q1011 NOSIG

METAR定义 | 嵌入

24小时趋势

航班类别VFRLIFR
温度30 °C29 °C
风速1 千吨0 千吨
能见度10 公里+0 米

更多历史数据

下载我们的安卓应用程序

从你的主屏幕上轻松地访问你的航空天气。
只需一次付费,您就可以获得无广告的体验。

您会帮助我们保持Metar-Taf.com正常运行吗?
您的贡献有助于网站的进一步开发并支付费用。

没有更多广告

您是捐款5美元还是更多?然后,我们将永远不会再向您展示广告,这是我们永恒的感谢!
捐赠前先登录

METAR 科托卡国际机场

科托卡国际机场是Accra,加纳中的大型机场。 机场有{a,plural,=1{一条跑道} other{#跑道}}: 3/21

科托卡国际机场最近未发布观察结果。相反,我们向您显示195 km的报告Takoradi Airport。 该报告是针对2022年1月1日 21:00, 当地时间进行的。

机场观察

可变方向的风很小或没有风。

可见度为10 公里 或者更多。

有几云在1.100 ft的高度。 没有观察到天花板。

温度和风寒是29 °C。 热指数为36。 露点为26 °C,相对湿度为84%。 海平面上的气压为1011 压力 (QNH)。

白天

今天,太阳从06:17升起,在18:09降落。 这适用于科托卡国际机场,世界夏令时可能有所不同。 当地时间与世界标准时间之间的时差为+0 小时。 当前,没有夏令时有效。

公司介绍

我们没有关于这个机场的公司信息。

体会

到Vliegles.nl去找飞行课程,跳伞和其他飞行体验。 浏览页面,了解科托卡国际机场附近所有可用的活动。 你也可以使用搜索功能来寻找你所在地附近的特定飞行课程、跳伞或其他飞行体验。

您是否要在网站上科托卡国际机场飞行的天气? 阅读更多   自由!